createdAt,value
2022-09-16T00:00:51.425Z,96986.78
2022-09-16T00:03:18.999Z,96979.44
2022-09-16T00:05:48.590Z,96978.31
2022-09-16T00:08:16.705Z,96986.34
2022-09-16T00:10:44.139Z,96987.66
2022-09-16T00:13:12.538Z,96980.44
2022-09-16T00:15:46.432Z,96976.72
2022-09-16T00:18:14.971Z,96974.72
2022-09-16T00:20:50.787Z,96970.34
2022-09-16T00:23:19.596Z,96972.94
2022-09-16T00:25:55.945Z,96975.66
2022-09-16T00:28:23.550Z,96983.66
2022-09-16T00:30:50.858Z,96983.34
2022-09-16T00:33:18.587Z,96984.28
2022-09-16T00:35:46.271Z,96980.28
2022-09-16T00:38:13.946Z,96971.13
2022-09-16T00:40:49.256Z,96974.34
2022-09-16T00:43:18.855Z,96964.75
2022-09-16T00:45:56.854Z,96977.34
2022-09-16T00:48:26.558Z,96965.31
2022-09-16T00:51:04.137Z,96971.44
2022-09-16T00:53:46.594Z,96968.09
2022-09-16T00:56:17.169Z,96960.91
2022-09-16T00:58:47.208Z,96963.47
2022-09-16T01:01:14.752Z,96967.47
2022-09-16T01:03:54.364Z,96967.66
2022-09-16T01:06:23.092Z,96960.94
2022-09-16T01:08:50.725Z,96963.94
2022-09-16T01:11:17.753Z,96962.50
2022-09-16T01:13:46.041Z,96963.63
2022-09-16T01:16:22.862Z,96964.88
2022-09-16T01:19:10.470Z,96969.97
2022-09-16T01:22:12.256Z,96973.97
2022-09-16T01:25:16.746Z,96969.72
2022-09-16T01:27:54.299Z,96962.66
2022-09-16T01:30:48.759Z,96952.31
2022-09-16T01:33:19.306Z,96957.13
2022-09-16T01:36:11.216Z,96952.69
2022-09-16T01:38:50.234Z,96955.94
2022-09-16T01:41:17.050Z,96964.09
2022-09-16T01:43:57.106Z,96953.09
2022-09-16T01:46:36.306Z,96956.72
2022-09-16T01:49:16.613Z,96948.25
2022-09-16T01:51:43.443Z,96949.97
2022-09-16T01:54:32.912Z,96942.13
2022-09-16T01:57:03.496Z,96936.69
2022-09-16T01:59:54.625Z,96936.47
2022-09-16T02:02:36.089Z,96945.81
2022-09-16T02:05:08.964Z,96942.03
2022-09-16T02:07:40.248Z,96949.88
2022-09-16T02:10:35.707Z,96957.75
2022-09-16T02:13:10.946Z,96943.66
2022-09-16T02:15:40.777Z,96938.53
2022-09-16T02:18:12.369Z,96945.41
2022-09-16T02:20:45.710Z,96951.81
2022-09-16T02:23:19.976Z,96941.88
2022-09-16T02:25:49.216Z,96944.56
2022-09-16T02:28:27.242Z,96942.00
2022-09-16T02:30:57.808Z,96949.19
2022-09-16T02:33:32.054Z,96949.84
2022-09-16T02:36:02.138Z,96948.09
2022-09-16T02:38:46.307Z,96956.06
2022-09-16T02:41:15.028Z,96953.53
2022-09-16T02:43:42.909Z,96952.91
2022-09-16T02:46:39.919Z,96950.47
2022-09-16T02:49:10.890Z,96951.59
2022-09-16T02:52:02.996Z,96955.56
2022-09-16T02:54:48.543Z,96951.13
2022-09-16T02:57:15.846Z,96954.00
2022-09-16T02:59:43.249Z,96955.63
2022-09-16T03:02:10.338Z,96946.31
2022-09-16T03:04:37.367Z,96949.50
2022-09-16T03:07:07.113Z,96941.81
2022-09-16T03:09:37.838Z,96940.84
2022-09-16T03:12:17.328Z,96946.75
2022-09-16T03:15:02.527Z,96936.97
2022-09-16T03:18:03.567Z,96942.56
2022-09-16T03:20:45.825Z,96956.84
2022-09-16T03:23:49.927Z,96952.31
2022-09-16T03:26:55.354Z,96953.13
2022-09-16T03:29:54.984Z,96959.03
2022-09-16T03:32:27.870Z,96948.91
2022-09-16T03:35:01.958Z,96952.13
2022-09-16T03:37:34.550Z,96957.88
2022-09-16T03:40:09.670Z,96965.53
2022-09-16T03:42:40.160Z,96970.97
2022-09-16T03:45:08.543Z,96966.16
2022-09-16T03:47:35.538Z,96971.59
2022-09-16T03:50:03.784Z,96977.06
2022-09-16T03:52:30.789Z,96987.63
2022-09-16T03:54:57.802Z,96987.16
2022-09-16T03:57:24.844Z,96981.06
2022-09-16T03:59:51.861Z,96990.06
2022-09-16T04:02:18.809Z,96981.41
2022-09-16T04:04:46.208Z,96990.41
2022-09-16T04:07:13.122Z,96979.78
2022-09-16T04:09:40.014Z,96981.38
2022-09-16T04:12:07.767Z,96974.06
2022-09-16T04:14:36.072Z,96972.31
2022-09-16T04:17:03.691Z,96976.28
2022-09-16T04:19:31.314Z,96972.94
2022-09-16T04:21:58.204Z,96983.34
2022-09-16T04:24:25.398Z,96978.03
2022-09-16T04:26:52.462Z,96982.88
2022-09-16T04:29:19.388Z,96967.50
2022-09-16T04:31:46.303Z,96977.59
2022-09-16T04:34:13.386Z,96975.31
2022-09-16T04:36:40.654Z,96982.00
2022-09-16T04:39:07.581Z,96991.75
2022-09-16T04:41:34.513Z,96986.31
2022-09-16T04:44:01.742Z,96988.97
2022-09-16T04:46:30.546Z,96990.72
2022-09-16T04:48:57.999Z,96988.91
2022-09-16T04:51:27.493Z,96991.28
2022-09-16T04:53:56.705Z,96991.97
2022-09-16T04:56:31.610Z,96984.88
2022-09-16T04:59:04.060Z,96987.53
2022-09-16T05:01:33.454Z,96988.81
2022-09-16T05:04:03.012Z,96994.88
2022-09-16T05:06:35.832Z,96987.44
2022-09-16T05:09:03.274Z,96983.41
2022-09-16T05:11:34.034Z,96989.22
2022-09-16T05:14:02.294Z,96993.31
2022-09-16T05:16:29.802Z,96990.38
2022-09-16T05:18:59.937Z,96991.16
2022-09-16T05:21:28.608Z,96994.84
2022-09-16T05:23:59.747Z,96991.03
2022-09-16T05:26:29.057Z,96997.19
2022-09-16T05:28:56.139Z,96990.59
2022-09-16T05:31:28.471Z,96985.50
2022-09-16T05:34:04.534Z,96981.63
2022-09-16T05:36:33.990Z,96984.91
2022-09-16T05:39:22.087Z,96989.72
2022-09-16T05:41:49.949Z,96997.72
2022-09-16T05:44:16.841Z,96993.13
2022-09-16T05:46:44.007Z,96985.81
2022-09-16T05:49:11.610Z,96997.28
2022-09-16T05:51:40.372Z,96991.69
2022-09-16T05:54:07.666Z,97003.97
2022-09-16T05:56:34.932Z,97009.28
2022-09-16T05:59:02.190Z,97002.41
2022-09-16T06:01:34.692Z,97011.19
2022-09-16T06:04:04.105Z,97009.06
2022-09-16T06:06:41.902Z,97010.69
2022-09-16T06:09:12.655Z,97014.66
2022-09-16T06:11:44.830Z,97008.38
2022-09-16T06:14:13.249Z,97007.31
2022-09-16T06:16:40.860Z,97010.84
2022-09-16T06:19:13.077Z,97010.81
2022-09-16T06:21:40.539Z,97017.91
2022-09-16T06:24:10.762Z,97010.31
2022-09-16T06:26:40.239Z,97022.03
2022-09-16T06:29:07.756Z,97017.81
2022-09-16T06:31:36.296Z,97031.25
2022-09-16T06:34:04.043Z,97026.47
2022-09-16T06:36:34.006Z,97033.50
2022-09-16T06:39:01.000Z,97031.69
2022-09-16T06:41:27.987Z,97035.88
2022-09-16T06:43:54.907Z,97025.38
2022-09-16T06:46:24.704Z,97031.03
2022-09-16T06:48:58.653Z,97028.91
2022-09-16T06:51:29.791Z,97037.50
2022-09-16T06:54:01.365Z,97033.69
2022-09-16T06:56:28.482Z,97030.69
2022-09-16T06:58:55.989Z,97039.97
2022-09-16T07:01:29.046Z,97032.44
2022-09-16T07:03:58.440Z,97037.91
2022-09-16T07:06:57.462Z,97040.81
2022-09-16T07:09:17.141Z,97043.28
2022-09-16T07:11:44.485Z,97043.56
2022-09-16T07:14:11.487Z,97040.34
2022-09-16T07:16:38.475Z,97042.16
2022-09-16T07:19:06.085Z,97034.28
2022-09-16T07:21:33.042Z,97038.19
2022-09-16T07:24:02.666Z,97033.59
2022-09-16T07:26:35.311Z,97032.13
2022-09-16T07:29:04.392Z,97039.88
2022-09-16T07:31:33.695Z,97044.19
2022-09-16T07:34:04.389Z,97041.94
2022-09-16T07:36:37.679Z,97034.72
2022-09-16T07:39:05.287Z,97036.81
2022-09-16T07:41:37.556Z,97030.56
2022-09-16T07:44:06.162Z,97042.72
2022-09-16T07:46:35.028Z,97034.44
2022-09-16T07:49:03.780Z,97043.25
2022-09-16T07:51:31.491Z,97037.13
2022-09-16T07:54:03.687Z,97036.94
2022-09-16T07:56:34.613Z,97042.00
2022-09-16T07:59:03.042Z,97043.59
2022-09-16T08:01:31.414Z,97046.78
2022-09-16T08:03:59.658Z,97036.94
2022-09-16T08:06:29.675Z,97047.19
2022-09-16T08:09:10.189Z,97051.38
2022-09-16T08:11:42.512Z,97061.03
2022-09-16T08:14:09.451Z,97051.19
2022-09-16T08:16:36.333Z,97055.22
2022-09-16T08:19:03.645Z,97058.00
2022-09-16T08:21:31.194Z,97047.03
2022-09-16T08:23:58.414Z,97043.81
2022-09-16T08:26:26.167Z,97042.38
2022-09-16T08:29:10.144Z,97040.97
2022-09-16T08:31:38.610Z,97035.13
2022-09-16T08:34:05.700Z,97038.53
2022-09-16T08:36:33.950Z,97036.22
2022-09-16T08:39:01.505Z,97037.59
2022-09-16T08:42:00.378Z,97040.13
2022-09-16T08:45:01.062Z,97034.75
2022-09-16T08:47:37.279Z,97025.28
2022-09-16T08:50:11.403Z,97029.59
2022-09-16T08:52:41.064Z,97023.84
2022-09-16T08:55:39.586Z,97029.38
2022-09-16T08:58:12.642Z,97024.81
2022-09-16T09:00:41.372Z,97023.38
2022-09-16T09:03:36.296Z,97018.34
2022-09-16T09:06:14.537Z,97029.38
2022-09-16T09:09:06.002Z,97019.22
2022-09-16T09:11:44.912Z,97029.66
2022-09-16T09:14:20.677Z,97023.97
2022-09-16T09:17:26.042Z,97029.88
2022-09-16T09:20:13.969Z,97024.16
2022-09-16T09:22:45.883Z,97007.06
2022-09-16T09:25:25.206Z,97016.75
2022-09-16T09:28:23.597Z,97026.19
2022-09-16T09:31:10.570Z,97028.47
2022-09-16T09:33:56.094Z,97032.13
2022-09-16T09:36:58.424Z,97018.53
2022-09-16T09:39:58.148Z,97024.94
2022-09-16T09:42:30.737Z,97020.44
2022-09-16T10:16:52.386Z,97038.41
2022-09-16T10:19:25.718Z,97020.97
2022-09-16T10:22:09.119Z,97028.97
2022-09-16T10:24:39.174Z,97033.97
2022-09-16T10:27:22.138Z,97033.41
2022-09-16T10:30:28.959Z,97022.59
2022-09-16T10:33:02.492Z,97027.63
2022-09-16T10:35:38.168Z,97015.09
2022-09-16T10:38:19.053Z,97032.88
2022-09-16T10:40:58.106Z,97024.03
2022-09-16T10:43:26.479Z,97025.81
2022-09-16T10:45:54.916Z,97017.72
2022-09-16T10:48:28.358Z,97021.69
2022-09-16T10:51:04.060Z,97031.38
2022-09-16T10:53:45.214Z,97023.25
2022-09-16T10:56:22.886Z,97030.13
2022-09-16T10:58:50.438Z,97030.19
2022-09-16T11:01:18.599Z,97027.16
2022-09-16T11:04:00.940Z,97033.41
2022-09-16T11:06:54.689Z,97036.25
2022-09-16T11:09:40.136Z,97029.91
2022-09-16T11:12:35.610Z,97031.19
2022-09-16T11:15:34.623Z,97032.00
2022-09-16T11:18:13.560Z,97034.81
2022-09-16T11:21:02.143Z,97034.53
2022-09-16T11:23:53.786Z,97030.91
2022-09-16T11:26:23.657Z,97038.09
2022-09-16T11:28:59.408Z,97038.19
2022-09-16T11:31:44.968Z,97036.63
2022-09-16T11:34:33.359Z,97042.94
2022-09-16T11:37:21.196Z,97024.25
2022-09-16T11:40:09.902Z,97022.97
2022-09-16T11:43:15.591Z,97024.06
2022-09-16T11:45:58.901Z,97014.66
2022-09-16T11:48:35.408Z,97003.97
2022-09-16T11:51:43.754Z,97002.88
2022-09-16T11:54:19.320Z,96987.72
2022-09-16T11:57:02.842Z,96998.44
2022-09-16T11:59:45.236Z,96986.31
2022-09-16T12:02:24.488Z,96989.47
2022-09-16T12:04:56.226Z,96990.31
2022-09-16T12:07:38.088Z,96983.91
2022-09-16T12:10:32.469Z,96992.69
2022-09-16T12:13:05.957Z,96981.22
2022-09-16T12:15:40.502Z,96995.72
2022-09-16T12:18:19.404Z,96992.53
2022-09-16T12:21:06.113Z,96987.41
2022-09-16T12:23:39.379Z,96987.66
2022-09-16T12:26:09.619Z,96986.75
2022-09-16T12:28:44.213Z,96985.44
2022-09-16T12:31:23.931Z,96979.03
2022-09-16T12:34:04.695Z,96980.00
2022-09-16T12:36:36.839Z,96968.19
2022-09-16T12:39:04.094Z,96974.66
2022-09-16T12:42:08.962Z,96968.09
2022-09-16T12:44:59.215Z,96981.25
2022-09-16T12:47:40.376Z,96979.00
2022-09-16T12:50:37.477Z,96971.75
2022-09-16T12:53:10.266Z,96967.88
2022-09-16T12:55:55.375Z,96971.72
2022-09-16T12:58:49.691Z,96961.28
2022-09-16T13:01:30.312Z,96952.25
2022-09-16T13:04:11.009Z,96948.63
2022-09-16T13:06:45.199Z,96947.22
2022-09-16T13:09:25.708Z,96946.56
2022-09-16T13:14:54.636Z,96950.78
2022-09-16T13:17:52.845Z,96947.41
2022-09-16T13:20:28.429Z,96942.28
2022-09-16T13:22:55.357Z,96941.09
2022-09-16T13:25:26.758Z,96939.13
2022-09-16T13:28:19.729Z,96934.81
2022-09-16T13:30:46.910Z,96943.66
2022-09-16T13:33:13.817Z,96938.28
2022-09-16T13:35:49.935Z,96925.66
2022-09-16T13:38:19.629Z,96931.88
2022-09-16T13:41:02.509Z,96931.81
2022-09-16T13:43:57.488Z,96931.31
2022-09-16T13:46:33.757Z,96924.66
2022-09-16T13:49:04.188Z,96937.41
2022-09-16T13:51:36.202Z,96926.06
2022-09-16T13:54:04.792Z,96928.44
2022-09-16T13:57:22.772Z,96938.38
2022-09-16T14:00:10.941Z,96939.72
2022-09-16T14:02:56.804Z,96937.31
2022-09-16T14:06:00.487Z,96931.66
2022-09-16T14:09:11.896Z,96928.78
2022-09-16T14:12:04.467Z,96917.63
2022-09-16T14:14:50.348Z,96927.88
2022-09-16T14:17:22.787Z,96927.63
2022-09-16T14:19:54.329Z,96932.28
2022-09-16T14:22:23.227Z,96935.69
2022-09-16T14:24:56.640Z,96933.09
2022-09-16T14:27:39.815Z,96924.13
2022-09-16T14:30:15.357Z,96913.09
2022-09-16T14:32:42.801Z,96910.06
2022-09-16T14:35:16.465Z,96917.78
2022-09-16T14:37:46.995Z,96910.81
2022-09-16T14:40:16.887Z,96911.03
2022-09-16T14:42:58.483Z,96908.56
2022-09-16T14:45:25.560Z,96903.28
2022-09-16T14:47:55.710Z,96902.56
2022-09-16T14:50:32.431Z,96904.16
2022-09-16T14:53:02.073Z,96911.59
2022-09-16T14:55:31.415Z,96914.50
2022-09-16T14:58:00.044Z,96927.19
2022-09-16T15:00:45.429Z,96931.72
2022-09-16T15:03:18.363Z,96950.69
2022-09-16T15:05:47.471Z,96982.34
2022-09-16T15:08:30.566Z,97020.34
2022-09-16T15:11:01.810Z,97058.19
2022-09-16T15:13:34.963Z,97092.44
2022-09-16T15:16:04.458Z,97079.84
2022-09-16T15:18:34.336Z,97082.72
2022-09-16T15:21:07.709Z,97103.91
2022-09-16T15:23:37.465Z,97062.31
2022-09-16T15:26:18.034Z,96995.13
2022-09-16T15:28:54.487Z,96985.41
2022-09-16T15:31:32.807Z,97007.03
2022-09-16T15:34:02.402Z,97040.59
2022-09-16T15:36:41.357Z,97055.75
2022-09-16T15:39:35.770Z,97078.91
2022-09-16T15:42:25.779Z,97093.03
2022-09-16T15:45:00.348Z,97105.41
2022-09-16T15:47:32.110Z,97099.16
2022-09-16T15:50:04.666Z,97088.31
2022-09-16T15:52:35.717Z,97088.19
2022-09-16T15:55:06.585Z,97082.28
2022-09-16T15:57:39.870Z,97075.44
2022-09-16T16:00:14.021Z,97070.03
2022-09-16T16:02:44.717Z,97068.59
2022-09-16T16:05:19.876Z,97054.94
2022-09-16T16:07:53.125Z,97066.91
2022-09-16T16:10:21.804Z,97061.47
2022-09-16T16:12:50.359Z,97065.06
2022-09-16T16:15:21.073Z,97058.97
2022-09-16T16:17:49.833Z,97055.00
2022-09-16T16:20:18.190Z,97044.75
2022-09-16T16:22:45.798Z,97049.88
2022-09-16T16:25:13.976Z,97052.75
2022-09-16T16:27:41.154Z,97044.28
2022-09-16T16:30:09.218Z,97031.94
2022-09-16T16:32:38.641Z,97039.31
2022-09-16T16:35:06.155Z,97044.13
2022-09-16T16:37:45.946Z,97052.44
2022-09-16T16:40:15.079Z,97063.34
2022-09-16T16:42:43.883Z,97057.09
2022-09-16T16:45:14.465Z,97051.84
2022-09-16T16:47:42.321Z,97048.16
2022-09-16T16:50:10.069Z,97052.31
2022-09-16T16:52:37.371Z,97061.59
2022-09-16T16:55:05.206Z,97069.72
2022-09-16T16:57:32.241Z,97088.91
2022-09-16T16:59:59.170Z,97103.78
2022-09-16T17:02:26.457Z,97089.81
2022-09-16T17:04:53.505Z,97081.84
2022-09-16T17:07:28.192Z,97065.34
2022-09-16T17:09:57.598Z,97076.69
2022-09-16T17:12:25.245Z,97058.75
2022-09-16T17:14:52.511Z,97056.88
2022-09-16T17:17:19.473Z,97054.72
2022-09-16T17:19:46.615Z,97032.72
2022-09-16T17:22:13.579Z,97029.44
2022-09-16T17:24:40.815Z,97033.72
2022-09-16T17:27:07.798Z,97035.03
2022-09-16T17:29:34.822Z,97032.13
2022-09-16T17:32:03.393Z,97030.47
2022-09-16T17:34:31.172Z,97028.41
2022-09-16T17:36:58.511Z,97038.16
2022-09-16T17:39:26.080Z,97030.50
2022-09-16T17:41:56.793Z,97039.00
2022-09-16T17:44:24.744Z,97034.66
2022-09-16T17:46:51.977Z,97039.34
2022-09-16T17:49:23.995Z,97023.63
2022-09-16T17:51:53.560Z,97022.22
2022-09-16T17:54:21.286Z,97027.59
2022-09-16T17:56:48.764Z,97023.00
2022-09-16T17:59:17.799Z,96995.81
2022-09-16T18:01:45.652Z,96983.00
2022-09-16T18:04:13.353Z,96990.69
2022-09-16T18:06:45.902Z,96993.88
2022-09-16T18:09:14.191Z,96998.19
2022-09-16T18:11:41.188Z,97000.09
2022-09-16T18:14:12.227Z,96992.75
2022-09-16T18:16:40.181Z,96973.41
2022-09-16T18:19:07.467Z,96959.34
2022-09-16T18:21:35.116Z,96952.63
2022-09-16T18:24:03.451Z,96957.25
2022-09-16T18:26:31.941Z,96957.56
2022-09-16T18:29:10.810Z,96963.00
2022-09-16T18:31:44.696Z,96966.34
2022-09-16T18:34:12.894Z,96982.03
2022-09-16T18:36:40.529Z,96979.00
2022-09-16T18:39:11.076Z,96966.22
2022-09-16T18:41:39.914Z,96973.88
2022-09-16T18:44:12.543Z,96967.41
2022-09-16T18:46:39.871Z,96972.41
2022-09-16T18:49:07.276Z,96974.31
2022-09-16T18:51:40.693Z,96982.63
2022-09-16T18:54:11.846Z,96973.19
2022-09-16T18:56:40.179Z,96960.97
2022-09-16T18:59:22.594Z,96963.69
2022-09-16T19:01:53.166Z,96954.38
2022-09-16T19:04:23.032Z,96952.78
2022-09-16T19:06:52.541Z,96952.63
2022-09-16T19:09:22.132Z,96955.97
2022-09-16T19:11:49.666Z,96964.53
2022-09-16T19:14:16.746Z,96964.06
2022-09-16T19:16:45.751Z,96957.09
2022-09-16T19:19:14.808Z,96962.25
2022-09-16T19:21:43.246Z,96963.69
2022-09-16T19:24:15.970Z,96967.66
2022-09-16T19:26:44.356Z,96958.03
2022-09-16T19:29:12.779Z,96967.47
2022-09-16T19:31:41.327Z,96969.09
2022-09-16T19:34:08.485Z,96971.09
2022-09-16T19:36:36.378Z,96974.78
2022-09-16T19:39:05.387Z,96978.94
2022-09-16T19:41:34.528Z,96980.63
2022-09-16T19:44:03.819Z,96985.75
2022-09-16T19:46:35.024Z,96993.41
2022-09-16T19:49:02.620Z,96984.78
2022-09-16T19:51:29.517Z,96990.91
2022-09-16T19:53:58.454Z,96996.34
2022-09-16T19:56:27.658Z,96998.25
2022-09-16T19:58:55.127Z,96996.00
2022-09-16T20:01:27.503Z,97003.50
2022-09-16T20:03:55.059Z,96994.06
2022-09-16T20:06:31.932Z,97003.78
2022-09-16T20:09:00.442Z,97005.41
2022-09-16T20:11:30.025Z,97005.22
2022-09-16T20:14:02.546Z,96999.78
2022-09-16T20:16:35.661Z,96996.88
2022-09-16T20:19:09.041Z,97005.69
2022-09-16T20:21:36.994Z,96991.31
2022-09-16T20:24:06.323Z,96998.50
2022-09-16T20:26:34.572Z,96996.00
2022-09-16T20:29:02.116Z,96999.34
2022-09-16T20:31:31.788Z,97008.53
2022-09-16T20:33:59.265Z,97003.75
2022-09-16T20:36:27.951Z,97013.41
2022-09-16T20:38:54.819Z,97011.34
2022-09-16T20:41:24.132Z,97012.91
2022-09-16T20:43:52.268Z,97010.00
2022-09-16T20:46:30.565Z,97007.56
2022-09-16T20:49:00.658Z,96999.88
2022-09-16T20:51:31.574Z,97004.00
2022-09-16T20:54:07.456Z,97023.09
2022-09-16T20:56:38.682Z,97027.31
2022-09-16T20:59:10.072Z,97030.72
2022-09-16T21:01:38.437Z,97015.97
2022-09-16T21:04:08.338Z,97023.13
2022-09-16T21:06:36.566Z,97017.94
2022-09-16T21:09:06.894Z,97014.81
2022-09-16T21:11:33.879Z,97014.31
2022-09-16T21:14:08.954Z,97013.06
2022-09-16T21:16:37.780Z,97004.34
2022-09-16T21:19:09.543Z,97003.97
2022-09-16T21:21:38.803Z,96994.63
2022-09-16T21:24:07.371Z,96998.34
2022-09-16T21:26:36.391Z,97005.28
2022-09-16T21:29:08.755Z,97000.50
2022-09-16T21:31:38.285Z,97001.22
2022-09-16T21:34:06.707Z,96995.94
2022-09-16T21:36:35.478Z,96994.41
2022-09-16T21:39:02.597Z,96990.44
2022-09-16T21:41:29.749Z,96999.47
2022-09-16T21:43:57.816Z,96997.72
2022-09-16T21:46:31.896Z,97006.44
2022-09-16T21:49:02.241Z,97002.59
2022-09-16T21:51:36.644Z,96998.19
2022-09-16T21:54:08.806Z,96994.50
2022-09-16T21:56:40.645Z,96994.16
2022-09-16T21:59:08.874Z,96987.94
2022-09-16T22:01:37.492Z,96993.84
2022-09-16T22:04:16.282Z,96987.16
2022-09-16T22:06:44.328Z,96982.03
2022-09-16T22:09:11.981Z,96983.28
2022-09-16T22:11:43.704Z,96977.56
2022-09-16T22:14:13.700Z,96970.53
2022-09-16T22:16:41.542Z,96972.75
2022-09-16T22:19:11.719Z,96982.19
2022-09-16T22:21:43.107Z,96976.44
2022-09-16T22:24:10.860Z,96960.91
2022-09-16T22:26:38.857Z,96963.78
2022-09-16T22:29:06.589Z,96968.38
2022-09-16T22:31:34.176Z,96966.97
2022-09-16T22:34:02.185Z,96961.63
2022-09-16T22:36:34.074Z,96957.88
2022-09-16T22:39:18.394Z,96956.25
2022-09-16T22:41:45.879Z,96966.09
2022-09-16T22:44:13.630Z,96967.97
2022-09-16T22:46:43.636Z,96951.69
2022-09-16T22:49:12.121Z,96948.97
2022-09-16T22:51:39.577Z,96959.13
2022-09-16T22:54:08.366Z,96956.75
2022-09-16T22:56:35.787Z,96944.47
2022-09-16T22:59:05.768Z,96938.28
2022-09-16T23:01:35.764Z,96938.09
2022-09-16T23:04:04.603Z,96932.69
2022-09-16T23:06:33.637Z,96928.84
2022-09-16T23:09:01.071Z,96932.19
2022-09-16T23:11:30.673Z,96926.66
2022-09-16T23:13:58.250Z,96929.09
2022-09-16T23:16:30.297Z,96926.00
2022-09-16T23:19:00.497Z,96913.63
2022-09-16T23:21:28.154Z,96903.31
2022-09-16T23:23:57.216Z,96909.03
2022-09-16T23:26:26.920Z,96896.78
2022-09-16T23:28:55.617Z,96909.53
2022-09-16T23:31:25.075Z,96908.84
2022-09-16T23:33:53.682Z,96904.56
2022-09-16T23:36:21.483Z,96912.81
2022-09-16T23:38:48.599Z,96910.03
2022-09-16T23:41:26.718Z,96905.66
2022-09-16T23:43:54.840Z,96906.00
2022-09-16T23:46:23.759Z,96904.84
2022-09-16T23:48:54.003Z,96890.16
2022-09-16T23:51:25.983Z,96878.81
2022-09-16T23:53:55.646Z,96886.34
2022-09-16T23:56:22.730Z,96873.16
2022-09-16T23:58:51.145Z,96877.63
